EST,Max TemperatureF,Mean TemperatureF,Min TemperatureF,Max Dew PointF,MeanDew PointF,Min DewpointF,Max Humidity, Mean Humidity, Min Humidity, Max Sea Level PressureIn, Mean Sea Level PressureIn, Min Sea Level PressureIn, Max VisibilityMiles, Mean VisibilityMiles, Min VisibilityMiles, Max Wind SpeedMPH, Mean Wind SpeedMPH, Max Gust SpeedMPH,PrecipitationIn, CloudCover, Events, WindDirDegrees
2013-11-1,77,72,66,68,65,63,94,80,61,29.95,29.79,29.71,10,9,2,20,8,31,0.62,5,Rain,196
2013-11-2,73,66,59,63,50,37,94,63,29,29.94,29.78,29.70,10,9,5,12,2,20,0.19,2,Rain,276
2013-11-3,64,52,41,41,37,32,87,57,30,30.38,30.16,29.95,10,10,7,10,2,17,0.02,0,,345
2013-11-4,57,46,35,36,33,28,93,65,33,30.57,30.51,30.39,10,10,10,10,3,16,0.02,0,,22
2013-11-5,59,49,39,52,42,34,94,74,59,30.55,30.50,30.44,10,10,7,8,2,,0.01,6,,6
2013-11-6,71,58,46,57,51,45,94,78,46,30.44,30.30,30.14,10,7,2,6,1,,0.00,3,,57
2013-11-7,71,60,48,63,53,32,94,72,38,30.13,30.02,29.93,10,7,1,9,2,16,0.06,5,Rain,284
2013-11-8,59,47,35,32,29,23,87,54,25,30.33,30.25,30.11,10,10,10,8,3,,0.00,0,,317
2013-11-9,60,46,32,37,31,27,93,61,27,30.39,30.30,30.18,10,10,7,9,1,,0.00,0,,195
2013-11-10,73,58,44,36,32,25,66,41,19,30.25,30.15,30.06,10,10,10,9,2,21,0.00,0,,269
2013-11-11,60,46,33,34,31,27,93,57,27,30.37,30.27,30.15,10,10,10,6,1,,0.00,0,,105
2013-11-12,60,48,37,36,30,12,87,56,33,30.42,30.18,30.05,10,10,7,17,4,29,0.00,3,Rain,350
2013-11-13,46,38,30,23,18,12,75,49,25,30.52,30.47,30.42,10,10,10,13,3,23,0.00,0,,343
2013-11-14,60,44,28,25,21,14,80,46,17,30.47,30.40,30.34,10,10,10,8,2,,0.00,0,,214
2013-11-15,64,50,35,50,34,23,88,53,27,30.37,30.30,30.23,10,10,7,7,2,,0.00,2,Rain,204
2013-11-16,64,58,51,57,53,50,94,86,73,30.29,30.25,30.22,10,6,0,6,1,,0.00,7,Fog-Rain,34
2013-11-17,75,64,53,66,58,52,94,81,57,30.24,30.10,29.92,10,6,0,9,2,,0.02,7,Fog-Rain,169
2013-11-18,77,67,57,68,50,27,94,56,27,29.97,29.87,29.82,10,9,4,12,5,21,0.01,3,Rain,276
2013-11-19,59,50,41,32,28,23,70,45,29,30.34,30.17,29.97,10,10,10,13,5,18,0.00,0,,353
2013-11-20,55,47,39,37,32,28,76,58,41,30.46,30.41,30.33,10,10,7,13,6,18,0.00,3,,25
2013-11-21,62,52,42,50,43,37,87,72,52,30.51,30.45,30.40,10,10,7,10,3,,0.00,6,,5
2013-11-22,73,60,48,61,54,45,94,76,57,30.41,30.25,30.10,10,9,0,7,1,,0.01,6,Fog-Rain,215
2013-11-23,64,54,44,61,42,18,94,59,28,30.17,30.09,30.04,10,9,4,8,2,,0.01,5,Rain,317
2013-11-24,44,35,24,21,7,-6,64,33,15,30.55,30.40,30.18,10,10,10,13,6,22,0.00,0,,335
2013-11-25,44,32,21,19,10,3,74,44,18,30.60,30.51,30.39,10,10,10,7,1,,0.00,0,,136
2013-11-26,69,53,37,66,39,18,94,71,45,30.40,30.04,29.57,10,8,2,15,4,23,0.11,8,Rain,83
2013-11-27,69,51,33,66,39,19,94,81,56,30.15,29.72,29.51,10,7,2,12,7,20,0.14,7,Rain,309
2013-11-28,46,36,26,27,20,14,80,57,34,30.50,30.38,30.16,10,10,10,9,3,,0.06,0,,321
2013-11-29,51,40,28,28,25,21,93,64,30,30.65,30.56,30.48,10,10,7,10,2,,0.00,0,,20
2013-11-30,51,40,30,34,30,25,100,74,47,30.65,30.54,30.38,10,10,7,9,3,,0.00,0,,8